Aviation Digital Data Service (ADDS)

Output produced by METARs form (1111 UTC 25 October 2014)
found at http://aviationweather.gov/adds/metars/
 
KCON 250925Z 2509/2606 30004KT P6SM BKN080 
     FM251800 24005KT P6SM BKN250